Terminal Aerodrome Forecast
Issued by NWS

Home | Current Version | Previous Version | Text Only | Print | Product List | Glossary On
Versions: 1 2 3 4 5 6 7 8 9 10 11 12 13
000
FTUS46 KPDT 301100
TAFALW
TAF
KALW 301120Z 3012/3112 17006KT 2SM BR SCT002 BKN100
      TEMPO 3012/3014 1/4SM FG VV002
     FM301600 18004KT 5SM BR FEW002 BKN080 OVC100
     FM301800 25005KT P6SM BKN080 OVC100
     FM310400 18005KT 6SM BR BKN100 OVC150=

USA.gov is the U.S. government's official web portal to all federal, state and local government web resources and services.